You are not logged in, Click here to log in
亞庇國際機場 / WBKK 馬來西亞沙巴州亞庇市丹容亞路區
ICAO: WBKK Country: 馬來西亞沙巴州亞庇市丹容亞路區
Latitude: 5.92308 Longitude: 116.051
Total Arrivals: 9 Total Departures: 7
Latest Arrival: FS9051 (WBGG-WBKK)Arthur. Kung Latest Departure: FS9052 (WBKK-RPLL)Arthur. Kung
Scenery:
METAR : WBKK 240600Z VRB04KT 9999 FEW015 30/26 Q1008 NOSIG

亞庇國際機場

You are accessing this site from IP address 34.201.9.19. Virtual Airline. CMS by phpVMS.Website designed by Zumeweb and edited by Theo Bearman.
There is 0 User(s) Online: | and 16 Guest(s) Online.
All information on this site is for fight simulation purposes only. This site is for flight logging for pilots of Virtual Airline&模擬飛行論壇 FlySim only.